Main page
METAR-TAF:

METAR-TAF

Airports :

Rajmata Vijaya Raje Scindia Airport

Gwalior, India

latitude: 26-17-36N, longitude: 78-13-40E, elevation: 188 m

METAR: missing

Time: 17:22 (11:52 UTC)

Forecast

The report was made 20 hours and 22 minutes ago, at 15:30 UTC
Forecast valid from 16 at 00 UTC to 16 at 12 UTC
Wind 2 kt from variable directions
Visibility: 4500 m
Few clouds at a height of 3000 ft
Scattered clouds at a height of 10000 ft
haze
Becoming
from 16 at 04 UTC to 16 at 05 UTC
Wind 8 kt from the Northwest
Visibility: 6000 m
Few clouds at a height of 3000 ft
Scattered clouds at a height of 10000 ft
Temporary
from 16 at 10 UTC to 16 at 12 UTC
Wind 10 kt from the West/Northwest with gusts up to 20 kt
Visibility: 6000 m
Scattered clouds at a height of 3000 ft
Few clouds at a height of 3000 ft, Towering cumulus.
Scattered clouds at a height of 10000 ft

TAF: VIGR 151530Z 1600/1612 VRB02KT 4500 HZ FEW030 SCT100 BECMG 1604/1605 31008KT 6000 FEW030 SCT100 TEMPO 1610/1612 29010G20KT 6000 SCT030 FEW030TCU SCT100

Weather observations and forecasts of more than 4000 airports (METAR and TAF reports).

The available stations are represented by yellow and red dots on the map.

Hover mouse over dot to see the name of the station.

Then click to see weather observations and forecasts.

To change the map : click on the green buttons with a black cross to zoom in, on the green button with a dash to zoom out, or on the green arrows for adjacent maps.


METAR-TAF: